createdAt,value
2019-04-11T00:02:31.228Z,6.93
2019-04-11T00:05:21.314Z,7.53
2019-04-11T00:08:12.140Z,7.10
2019-04-11T00:11:02.296Z,7.40
2019-04-11T00:13:53.552Z,6.27
2019-04-11T00:16:45.620Z,6.07
2019-04-11T00:19:35.954Z,6.87
2019-04-11T00:22:27.695Z,6.43
2019-04-11T00:25:17.742Z,7.27
2019-04-11T00:28:08.010Z,7.27
2019-04-11T00:31:01.351Z,6.80
2019-04-11T00:33:54.272Z,6.37
2019-04-11T00:36:44.803Z,7.47
2019-04-11T00:39:39.631Z,6.73
2019-04-11T00:42:30.435Z,6.97
2019-04-11T00:45:21.275Z,7.63
2019-04-11T00:48:11.376Z,6.90
2019-04-11T00:51:01.541Z,7.23
2019-04-11T00:53:52.057Z,7.80
2019-04-11T00:56:42.304Z,8.03
2019-04-11T00:59:32.529Z,7.10
2019-04-11T01:02:25.818Z,7.20
2019-04-11T01:05:17.853Z,7.10
2019-04-11T01:08:09.883Z,7.00
2019-04-11T01:11:00.482Z,6.90
2019-04-11T01:13:54.954Z,7.20
2019-04-11T01:16:52.649Z,6.70
2019-04-11T01:19:42.971Z,7.40
2019-04-11T01:22:35.095Z,7.07
2019-04-11T01:25:25.379Z,7.10
2019-04-11T01:28:15.344Z,7.23
2019-04-11T01:31:09.379Z,7.37
2019-04-11T01:34:02.268Z,6.97
2019-04-11T01:36:53.884Z,6.63
2019-04-11T01:39:57.098Z,6.80
2019-04-11T01:42:47.344Z,6.67
2019-04-11T01:45:37.873Z,6.90
2019-04-11T01:48:44.386Z,6.90
2019-04-11T01:51:35.903Z,7.47
2019-04-11T01:54:26.287Z,6.07
2019-04-11T01:57:15.922Z,5.90
2019-04-11T02:00:08.227Z,6.50
2019-04-11T02:02:59.576Z,6.40
2019-04-11T02:05:49.589Z,5.57
2019-04-11T02:08:41.663Z,6.17
2019-04-11T02:11:31.825Z,6.47
2019-04-11T02:14:22.599Z,5.27
2019-04-11T02:17:15.203Z,5.70
2019-04-11T02:20:07.022Z,5.90
2019-04-11T02:23:06.777Z,5.90
2019-04-11T02:26:03.554Z,6.10
2019-04-11T02:28:55.105Z,5.40
2019-04-11T02:31:46.756Z,5.67
2019-04-11T02:34:39.568Z,5.87
2019-04-11T02:37:31.538Z,5.40
2019-04-11T02:40:22.974Z,5.53
2019-04-11T02:43:17.429Z,5.10
2019-04-11T02:46:17.294Z,4.50
2019-04-11T02:49:01.498Z,5.10
2019-04-11T02:51:53.565Z,5.10
2019-04-11T02:54:45.168Z,5.63
2019-04-11T02:57:36.279Z,5.57
2019-04-11T03:00:29.189Z,5.40
2019-04-11T03:03:18.980Z,4.67
2019-04-11T03:06:11.175Z,5.10
2019-04-11T03:09:02.767Z,5.03
2019-04-11T03:11:54.635Z,4.53
2019-04-11T03:15:05.768Z,4.67
2019-04-11T03:17:43.258Z,4.40
2019-04-11T03:20:36.870Z,5.00
2019-04-11T03:23:23.544Z,4.63
2019-04-11T03:26:14.209Z,4.70
2019-04-11T03:29:06.286Z,4.50
2019-04-11T03:32:40.171Z,5.43
2019-04-11T03:38:05.825Z,4.50
2019-04-11T03:40:50.512Z,4.10
2019-04-11T03:43:36.684Z,4.87
2019-04-11T03:46:33.920Z,5.17
2019-04-11T03:49:21.022Z,4.80
2019-04-11T03:52:01.378Z,4.50
2019-04-11T03:54:54.137Z,4.33
2019-04-11T03:57:47.053Z,4.23
2019-04-11T04:00:43.890Z,4.50
2019-04-11T04:03:34.052Z,4.77
2019-04-11T04:06:25.649Z,3.70
2019-04-11T04:09:17.092Z,3.87
2019-04-11T04:12:09.048Z,4.13
2019-04-11T04:15:39.149Z,3.63
2019-04-11T04:18:29.894Z,4.70
2019-04-11T04:21:43.561Z,4.40
2019-04-11T04:24:39.784Z,3.90
2019-04-11T04:27:30.354Z,4.77
2019-04-11T04:30:24.540Z,4.20
2019-04-11T04:33:17.096Z,3.77
2019-04-11T04:36:10.416Z,4.30
2019-04-11T04:39:01.205Z,4.10
2019-04-11T04:42:01.140Z,3.57
2019-04-11T04:44:45.186Z,4.80
2019-04-11T04:47:42.377Z,4.13
2019-04-11T04:50:27.185Z,3.70
2019-04-11T04:53:20.230Z,4.20
2019-04-11T04:56:11.094Z,3.60
2019-04-11T04:59:02.631Z,3.60
2019-04-11T05:01:53.258Z,3.37
2019-04-11T05:04:45.903Z,3.40
2019-04-11T05:07:40.100Z,3.50
2019-04-11T05:10:32.599Z,3.30
2019-04-11T05:13:23.936Z,3.47
2019-04-11T05:16:17.602Z,3.50
2019-04-11T05:19:04.922Z,3.40
2019-04-11T05:21:57.574Z,3.57
2019-04-11T05:24:47.504Z,3.10
2019-04-11T05:27:37.850Z,4.30
2019-04-11T05:30:27.530Z,3.00
2019-04-11T05:33:18.739Z,4.40
2019-04-11T05:36:08.574Z,3.90
2019-04-11T05:38:58.364Z,3.27
2019-04-11T05:41:51.423Z,4.30
2019-04-11T05:44:43.257Z,4.53
2019-04-11T05:47:35.334Z,3.80
2019-04-11T05:50:36.167Z,3.00
2019-04-11T05:53:27.920Z,3.60
2019-04-11T05:56:22.264Z,4.43
2019-04-11T05:59:18.889Z,3.50
2019-04-11T06:02:21.507Z,4.07
2019-04-11T06:05:31.238Z,4.27
2019-04-11T06:08:24.133Z,4.20
2019-04-11T06:11:24.184Z,5.30
2019-04-11T06:14:22.895Z,3.40
2019-04-11T06:17:15.878Z,3.70
2019-04-11T06:20:27.171Z,3.20
2019-04-11T06:23:56.792Z,3.50
2019-04-11T06:27:11.315Z,3.77
2019-04-11T06:30:30.491Z,4.07
2019-04-11T06:33:27.093Z,3.43
2019-04-11T06:36:43.307Z,3.40
2019-04-11T06:39:37.922Z,3.70
2019-04-11T06:42:37.257Z,3.37
2019-04-11T06:45:58.623Z,3.70
2019-04-11T06:49:00.276Z,3.47
2019-04-11T06:51:56.746Z,3.40
2019-04-11T06:55:10.855Z,3.00
2019-04-11T06:58:06.689Z,4.13
2019-04-11T07:01:01.936Z,3.47
2019-04-11T07:03:55.337Z,4.20
2019-04-11T07:06:48.176Z,3.93
2019-04-11T07:09:49.099Z,3.80
2019-04-11T07:13:00.658Z,4.03
2019-04-11T07:15:54.861Z,4.33
2019-04-11T07:19:02.874Z,4.00
2019-04-11T07:21:53.463Z,4.00
2019-04-11T07:25:02.291Z,3.50
2019-04-11T07:28:10.034Z,4.50
2019-04-11T07:31:19.258Z,4.20
2019-04-11T07:34:39.652Z,4.73
2019-04-11T07:37:42.851Z,3.83
2019-04-11T07:40:51.978Z,4.27
2019-04-11T07:43:43.162Z,4.07
2019-04-11T07:46:49.499Z,4.27
2019-04-11T07:49:40.882Z,4.87
2019-04-11T07:52:34.554Z,4.47
2019-04-11T07:55:25.895Z,4.63
2019-04-11T07:58:24.010Z,4.70
2019-04-11T08:01:38.361Z,4.80
2019-04-11T08:04:47.272Z,4.50
2019-04-11T08:07:55.272Z,4.17
2019-04-11T08:10:53.026Z,4.77
2019-04-11T08:14:02.248Z,5.20
2019-04-11T08:17:28.095Z,4.73
2019-04-11T08:20:29.086Z,4.50
2019-04-11T08:23:19.764Z,4.63
2019-04-11T08:26:39.511Z,4.70
2019-04-11T08:29:30.553Z,5.50
2019-04-11T08:32:40.129Z,5.00
2019-04-11T08:35:53.474Z,5.60
2019-04-11T08:38:46.473Z,4.90
2019-04-11T08:41:56.982Z,4.90
2019-04-11T08:44:48.126Z,5.20
2019-04-11T08:47:52.676Z,5.10
2019-04-11T08:50:44.923Z,5.87
2019-04-11T08:53:55.020Z,5.03
2019-04-11T08:56:47.366Z,5.07
2019-04-11T09:00:14.057Z,5.67
2019-04-11T09:03:18.363Z,5.43
2019-04-11T09:06:12.405Z,5.60
2019-04-11T09:09:20.968Z,5.60
2019-04-11T09:12:14.287Z,5.70
2019-04-11T09:15:37.057Z,4.70
2019-04-11T09:18:28.062Z,5.30
2019-04-11T09:21:36.151Z,5.17
2019-04-11T09:24:41.221Z,4.73
2019-04-11T09:27:55.497Z,5.60
2019-04-11T09:31:12.181Z,5.47
2019-04-11T09:34:21.777Z,5.43
2019-04-11T09:37:25.359Z,5.17
2019-04-11T09:40:37.632Z,5.20
2019-04-11T09:43:31.766Z,5.43
2019-04-11T09:46:34.485Z,5.43
2019-04-11T09:49:31.072Z,5.03
2019-04-11T09:52:29.020Z,5.50
2019-04-11T09:55:39.588Z,5.50
2019-04-11T09:58:29.599Z,5.60
2019-04-11T10:01:40.791Z,4.80
2019-04-11T10:04:33.925Z,4.83
2019-04-11T10:07:33.529Z,5.30
2019-04-11T10:10:46.552Z,4.70
2019-04-11T10:13:55.913Z,5.50
2019-04-11T10:17:04.552Z,5.13
2019-04-11T10:20:00.864Z,4.77
2019-04-11T10:23:12.946Z,4.73
2019-04-11T10:26:04.454Z,4.63
2019-04-11T10:29:13.441Z,5.17
2019-04-11T10:32:03.463Z,4.37
2019-04-11T10:35:30.362Z,4.80
2019-04-11T10:38:20.522Z,4.10
2019-04-11T10:41:32.664Z,4.27
2019-04-11T10:44:42.304Z,5.10
2019-04-11T10:47:33.724Z,4.40
2019-04-11T10:50:50.683Z,4.00
2019-04-11T10:53:43.769Z,5.00
2019-04-11T10:56:45.924Z,4.40
2019-04-11T10:59:36.435Z,4.70
2019-04-11T11:03:02.008Z,4.47
2019-04-11T11:05:55.506Z,4.37
2019-04-11T11:08:57.563Z,4.30
2019-04-11T11:11:59.359Z,4.30
2019-04-11T11:15:14.000Z,4.37
2019-04-11T11:18:53.989Z,4.77
2019-04-11T11:21:30.010Z,4.53
2019-04-11T11:24:44.207Z,4.03
2019-04-11T11:27:36.181Z,3.97
2019-04-11T11:30:47.301Z,4.17
2019-04-11T11:33:38.572Z,4.10
2019-04-11T11:37:07.055Z,5.17
2019-04-11T11:40:16.576Z,4.17
2019-04-11T11:43:30.986Z,4.47
2019-04-11T11:46:38.308Z,4.30
2019-04-11T11:49:42.425Z,4.20
2019-04-11T11:52:49.542Z,3.83
2019-04-11T11:55:41.162Z,4.20
2019-04-11T11:58:56.164Z,3.80
2019-04-11T12:01:50.949Z,3.73
2019-04-11T12:04:56.073Z,4.10
2019-04-11T12:08:00.411Z,4.00
2019-04-11T12:11:04.270Z,3.47
2019-04-11T12:14:18.604Z,3.70
2019-04-11T12:17:23.148Z,4.00
2019-04-11T12:20:20.833Z,3.17
2019-04-11T12:23:29.515Z,3.57
2019-04-11T12:26:20.295Z,3.00
2019-04-11T12:29:30.618Z,3.53
2019-04-11T12:32:25.332Z,3.90
2019-04-11T12:35:34.130Z,4.00
2019-04-11T12:38:54.668Z,4.10
2019-04-11T12:42:15.387Z,3.70
2019-04-11T12:45:23.981Z,3.60
2019-04-11T12:48:13.788Z,4.00
2019-04-11T12:51:34.272Z,3.83
2019-04-11T12:54:28.912Z,4.60
2019-04-11T12:57:37.620Z,6.10
2019-04-11T13:00:50.518Z,4.17
2019-04-11T13:03:58.279Z,3.70
2019-04-11T13:07:22.164Z,3.80
2019-04-11T13:10:31.875Z,3.47
2019-04-11T13:13:30.660Z,3.67
2019-04-11T13:16:21.551Z,3.83
2019-04-11T13:19:28.737Z,3.90
2019-04-11T13:22:22.341Z,4.03
2019-04-11T13:25:35.594Z,3.50
2019-04-11T13:28:29.093Z,3.77
2019-04-11T13:31:36.651Z,4.07
2019-04-11T13:34:26.805Z,4.07
2019-04-11T13:37:30.899Z,3.50
2019-04-11T13:40:36.471Z,3.33
2019-04-11T13:43:31.833Z,3.40
2019-04-11T13:46:47.142Z,2.90
2019-04-11T13:49:43.146Z,3.13
2019-04-11T13:52:54.869Z,3.50
2019-04-11T13:55:44.749Z,3.47
2019-04-11T13:58:55.395Z,3.30
2019-04-11T14:01:46.452Z,3.57
2019-04-11T14:04:43.025Z,3.10
2019-04-11T14:07:34.150Z,2.53
2019-04-11T14:10:25.327Z,3.10
2019-04-11T14:13:17.265Z,3.10
2019-04-11T14:16:10.965Z,3.03
2019-04-11T14:19:21.051Z,3.27
2019-04-11T14:22:13.745Z,3.07
2019-04-11T14:25:33.953Z,2.97
2019-04-11T14:28:24.587Z,2.30
2019-04-11T14:31:37.344Z,2.33
2019-04-11T14:34:45.706Z,2.60
2019-04-11T14:37:51.515Z,2.40
2019-04-11T14:41:09.857Z,2.50
2019-04-11T14:44:02.952Z,2.80
2019-04-11T14:47:14.210Z,2.30
2019-04-11T14:50:04.394Z,2.10
2019-04-11T14:53:25.095Z,2.20
2019-04-11T14:56:16.935Z,2.20
2019-04-11T14:59:15.664Z,2.63
2019-04-11T15:02:13.140Z,4.00
2019-04-11T15:05:13.661Z,3.03
2019-04-11T15:08:01.148Z,9.57
2019-04-11T15:11:10.066Z,15.23
2019-04-11T15:14:09.358Z,5.17
2019-04-11T15:17:30.537Z,2.77
2019-04-11T15:20:55.484Z,2.73
2019-04-11T15:23:45.422Z,2.57
2019-04-11T15:26:52.857Z,2.30
2019-04-11T15:29:45.935Z,1.80
2019-04-11T15:32:59.933Z,1.53
2019-04-11T15:35:50.545Z,1.40
2019-04-11T15:39:02.214Z,1.70
2019-04-11T15:42:01.437Z,1.67
2019-04-11T15:45:04.458Z,1.63
2019-04-11T15:48:10.605Z,1.70
2019-04-11T15:51:35.114Z,1.67
2019-04-11T15:54:44.076Z,2.03
2019-04-11T15:57:46.639Z,2.10
2019-04-11T16:01:04.756Z,1.80
2019-04-11T16:04:02.412Z,1.30
2019-04-11T16:07:11.245Z,1.20
2019-04-11T16:10:00.826Z,1.80
2019-04-11T16:12:57.315Z,1.70
2019-04-11T16:15:50.458Z,1.60
2019-04-11T16:18:59.478Z,1.50
2019-04-11T16:22:14.520Z,1.80
2019-04-11T16:25:08.695Z,1.40
2019-04-11T16:28:16.269Z,1.70
2019-04-11T16:31:09.474Z,1.40
2019-04-11T16:34:16.107Z,1.30
2019-04-11T16:37:08.049Z,1.83
2019-04-11T16:40:16.493Z,1.57
2019-04-11T16:43:09.316Z,1.60
2019-04-11T16:46:19.881Z,1.53
2019-04-11T16:49:10.479Z,1.90
2019-04-11T16:52:01.655Z,1.90
2019-04-11T16:54:52.455Z,1.73
2019-04-11T16:57:44.335Z,1.87
2019-04-11T17:00:35.307Z,2.20
2019-04-11T17:03:25.689Z,1.97
2019-04-11T17:06:33.244Z,1.60
2019-04-11T17:09:34.103Z,1.50
2019-04-11T17:12:26.680Z,1.47
2019-04-11T17:15:17.207Z,2.00
2019-04-11T17:18:09.540Z,1.50
2019-04-11T17:20:59.741Z,2.17
2019-04-11T17:23:49.773Z,1.60
2019-04-11T17:26:39.921Z,1.80
2019-04-11T17:29:31.338Z,1.50
2019-04-11T17:32:23.617Z,1.70
2019-04-11T17:35:15.356Z,1.50
2019-04-11T17:38:08.094Z,1.20
2019-04-11T17:40:59.559Z,1.30
2019-04-11T17:43:51.605Z,1.60
2019-04-11T17:46:45.064Z,1.30
2019-04-11T17:49:36.976Z,1.53
2019-04-11T17:52:29.107Z,2.07
2019-04-11T17:55:18.792Z,1.80
2019-04-11T17:58:09.066Z,1.70
2019-04-11T18:01:05.181Z,2.60
2019-04-11T18:03:53.242Z,2.17
2019-04-11T18:06:46.999Z,1.97
2019-04-11T18:09:35.887Z,2.03
2019-04-11T18:12:28.157Z,2.10
2019-04-11T18:15:20.213Z,2.40
2019-04-11T18:18:12.820Z,1.97
2019-04-11T18:21:06.995Z,1.80
2019-04-11T18:23:55.272Z,1.83
2019-04-11T18:26:45.498Z,1.70
2019-04-11T18:29:38.835Z,2.10
2019-04-11T18:32:28.540Z,2.20
2019-04-11T18:35:19.784Z,2.23
2019-04-11T18:38:09.925Z,1.87
2019-04-11T18:41:02.321Z,2.20
2019-04-11T18:43:53.467Z,1.53
2019-04-11T18:46:44.011Z,1.90
2019-04-11T18:49:36.902Z,1.60
2019-04-11T18:52:29.005Z,2.07
2019-04-11T18:55:23.504Z,1.50
2019-04-11T18:58:14.402Z,2.17
2019-04-11T19:01:09.063Z,1.50
2019-04-11T19:03:59.532Z,2.07
2019-04-11T19:06:52.415Z,1.67
2019-04-11T19:09:43.876Z,1.67
2019-04-11T19:12:36.672Z,1.80
2019-04-11T19:15:26.786Z,2.10
2019-04-11T19:18:17.308Z,2.47
2019-04-11T19:21:11.860Z,1.93
2019-04-11T19:24:02.054Z,2.10
2019-04-11T19:26:53.415Z,1.93
2019-04-11T19:29:44.086Z,2.00
2019-04-11T19:32:35.504Z,2.50
2019-04-11T19:35:27.264Z,2.10
2019-04-11T19:38:43.405Z,1.80
2019-04-11T19:41:33.703Z,1.60
2019-04-11T19:44:23.624Z,2.03
2019-04-11T19:47:13.846Z,2.10
2019-04-11T19:50:06.936Z,3.00
2019-04-11T19:52:56.995Z,2.30
2019-04-11T19:56:00.458Z,2.97
2019-04-11T19:58:51.592Z,3.50
2019-04-11T20:01:43.173Z,4.20
2019-04-11T20:04:35.020Z,3.10
2019-04-11T20:07:25.146Z,2.83
2019-04-11T20:10:16.119Z,3.10
2019-04-11T20:13:06.855Z,3.10
2019-04-11T20:15:57.653Z,3.10
2019-04-11T20:18:51.388Z,2.70
2019-04-11T20:21:39.887Z,3.03
2019-04-11T20:24:33.107Z,2.60
2019-04-11T20:27:22.673Z,2.23
2019-04-11T20:30:13.513Z,2.40
2019-04-11T20:33:08.465Z,2.10
2019-04-11T20:35:59.537Z,2.57
2019-04-11T20:38:49.937Z,2.40
2019-04-11T20:41:39.766Z,2.47
2019-04-11T20:44:30.731Z,2.70
2019-04-11T20:47:20.630Z,2.30
2019-04-11T20:50:10.600Z,1.97
2019-04-11T20:53:11.970Z,2.70
2019-04-11T20:55:54.154Z,3.60
2019-04-11T20:58:44.494Z,2.60
2019-04-11T21:01:35.209Z,2.33
2019-04-11T21:04:27.241Z,2.33
2019-04-11T21:07:18.413Z,2.33
2019-04-11T21:10:10.061Z,2.47
2019-04-11T21:13:00.044Z,2.23
2019-04-11T21:15:54.171Z,2.43
2019-04-11T21:18:45.586Z,2.30
2019-04-11T21:21:35.449Z,2.50
2019-04-11T21:24:25.657Z,2.50
2019-04-11T21:27:15.819Z,2.10
2019-04-11T21:30:05.856Z,2.10
2019-04-11T21:33:01.159Z,2.33
2019-04-11T21:35:50.501Z,1.80
2019-04-11T21:38:40.550Z,2.23
2019-04-11T21:41:30.781Z,2.37
2019-04-11T21:44:21.088Z,2.37
2019-04-11T21:47:13.343Z,2.07
2019-04-11T21:50:09.142Z,2.33
2019-04-11T21:52:57.896Z,2.33
2019-04-11T21:55:48.373Z,2.10
2019-04-11T21:58:39.383Z,2.67
2019-04-11T22:01:29.513Z,2.30
2019-04-11T22:04:19.388Z,2.60
2019-04-11T22:07:09.576Z,2.23
2019-04-11T22:10:00.618Z,2.60
2019-04-11T22:12:49.971Z,2.43
2019-04-11T22:15:42.453Z,2.10
2019-04-11T22:18:32.902Z,2.50
2019-04-11T22:21:22.306Z,2.43
2019-04-11T22:24:12.477Z,2.77
2019-04-11T22:27:02.222Z,2.63
2019-04-11T22:29:54.973Z,2.13
2019-04-11T22:32:46.876Z,2.90
2019-04-11T22:35:39.186Z,2.60
2019-04-11T22:38:31.060Z,3.00
2019-04-11T22:41:20.365Z,2.80
2019-04-11T22:44:10.600Z,3.00
2019-04-11T22:47:00.810Z,2.30
2019-04-11T22:49:50.758Z,2.33
2019-04-11T22:52:42.323Z,2.50
2019-04-11T22:55:32.526Z,2.90
2019-04-11T22:58:22.483Z,2.40
2019-04-11T23:01:16.584Z,2.60
2019-04-11T23:04:05.940Z,2.10
2019-04-11T23:06:55.658Z,2.60
2019-04-11T23:09:48.767Z,2.43
2019-04-11T23:12:37.130Z,2.60
2019-04-11T23:15:26.766Z,2.27
2019-04-11T23:18:18.735Z,2.17
2019-04-11T23:21:09.284Z,2.13
2019-04-11T23:24:11.799Z,2.20
2019-04-11T23:26:56.701Z,2.70
2019-04-11T23:29:48.550Z,2.97
2019-04-11T23:32:38.195Z,2.50
2019-04-11T23:35:29.086Z,2.30
2019-04-11T23:38:23.611Z,2.03
2019-04-11T23:41:11.501Z,2.77
2019-04-11T23:44:01.899Z,2.50
2019-04-11T23:46:52.717Z,2.90
2019-04-11T23:49:43.677Z,2.47
2019-04-11T23:52:33.158Z,2.43
2019-04-11T23:55:25.174Z,2.37
2019-04-11T23:58:16.431Z,2.20
